sensor_id;sensor_type;location;lat;lon;timestamp;pressure;altitude;pressure_sealevel;temperature;humidity
5952;BME280;3001;42.622;23.194;2023-07-24T00:00:36;91700.53;;;22.28;51.11
5952;BME280;3001;42.622;23.194;2023-07-24T00:03:04;91703.94;;;22.28;51.87
5952;BME280;3001;42.622;23.194;2023-07-24T00:05:32;91695.06;;;22.14;50.75
5952;BME280;3001;42.622;23.194;2023-07-24T00:07:59;91693.63;;;22.20;50.60
5952;BME280;3001;42.622;23.194;2023-07-24T00:10:26;91694.63;;;22.08;50.63
5952;BME280;3001;42.622;23.194;2023-07-24T00:12:52;91701.13;;;22.14;50.09
5952;BME280;3001;42.622;23.194;2023-07-24T00:15:19;91693.16;;;22.11;49.39
5952;BME280;3001;42.622;23.194;2023-07-24T00:17:46;91691.19;;;22.04;49.11
5952;BME280;3001;42.622;23.194;2023-07-24T00:20:13;91693.09;;;22.07;49.24
5952;BME280;3001;42.622;23.194;2023-07-24T00:22:41;91691.03;;;21.94;48.43
5952;BME280;3001;42.622;23.194;2023-07-24T00:25:08;91685.69;;;21.90;48.55
5952;BME280;3001;42.622;23.194;2023-07-24T00:27:36;91683.84;;;21.91;48.49
5952;BME280;3001;42.622;23.194;2023-07-24T00:30:03;91688.94;;;22.06;47.05
5952;BME280;3001;42.622;23.194;2023-07-24T00:32:30;91687.53;;;22.16;49.01
5952;BME280;3001;42.622;23.194;2023-07-24T00:34:57;91691.03;;;22.23;46.64
5952;BME280;3001;42.622;23.194;2023-07-24T00:37:24;91693.31;;;22.25;47.20
5952;BME280;3001;42.622;23.194;2023-07-24T00:39:52;91692.94;;;22.26;46.76
5952;BME280;3001;42.622;23.194;2023-07-24T00:42:18;91689.97;;;22.31;47.20
5952;BME280;3001;42.622;23.194;2023-07-24T00:44:45;91687.72;;;22.30;49.30
5952;BME280;3001;42.622;23.194;2023-07-24T00:47:12;91684.38;;;22.03;48.10
5952;BME280;3001;42.622;23.194;2023-07-24T00:49:39;91682.34;;;21.93;48.65
5952;BME280;3001;42.622;23.194;2023-07-24T00:52:07;91686.88;;;21.93;48.48
5952;BME280;3001;42.622;23.194;2023-07-24T00:54:34;91685.69;;;21.87;48.36
5952;BME280;3001;42.622;23.194;2023-07-24T00:57:03;91681.66;;;22.00;47.39
5952;BME280;3001;42.622;23.194;2023-07-24T00:59:31;91673.72;;;22.00;46.89
5952;BME280;3001;42.622;23.194;2023-07-24T01:01:58;91678.41;;;22.10;46.94
5952;BME280;3001;42.622;23.194;2023-07-24T01:04:25;91676.28;;;22.26;48.03
5952;BME280;3001;42.622;23.194;2023-07-24T01:06:52;91666.47;;;22.26;46.73
5952;BME280;3001;42.622;23.194;2023-07-24T01:09:18;91675.66;;;22.36;45.90
5952;BME280;3001;42.622;23.194;2023-07-24T01:11:47;91672.81;;;22.48;46.94
5952;BME280;3001;42.622;23.194;2023-07-24T01:14:21;91665.22;;;22.46;47.66
5952;BME280;3001;42.622;23.194;2023-07-24T01:16:49;91663.34;;;22.47;47.88
5952;BME280;3001;42.622;23.194;2023-07-24T01:19:20;91662.97;;;22.48;48.91
5952;BME280;3001;42.622;23.194;2023-07-24T01:22:01;91659.84;;;22.39;48.27
5952;BME280;3001;42.622;23.194;2023-07-24T01:24:40;91655.56;;;22.31;47.67
5952;BME280;3001;42.622;23.194;2023-07-24T01:27:20;91655.09;;;22.22;47.54
5952;BME280;3001;42.622;23.194;2023-07-24T01:29:47;91659.63;;;22.22;48.46
5952;BME280;3001;42.622;23.194;2023-07-24T01:32:13;91653.47;;;22.14;50.01
5952;BME280;3001;42.622;23.194;2023-07-24T01:34:40;91659.38;;;22.01;48.99
5952;BME280;3001;42.622;23.194;2023-07-24T01:37:07;91662.00;;;21.97;49.78
5952;BME280;3001;42.622;23.194;2023-07-24T01:39:34;91654.22;;;22.11;50.02
5952;BME280;3001;42.622;23.194;2023-07-24T01:42:01;91663.16;;;22.00;49.43
5952;BME280;3001;42.622;23.194;2023-07-24T01:44:30;91671.00;;;21.93;49.99
5952;BME280;3001;42.622;23.194;2023-07-24T01:46:56;91675.22;;;21.97;48.73
5952;BME280;3001;42.622;23.194;2023-07-24T01:49:23;91673.16;;;21.58;49.38
5952;BME280;3001;42.622;23.194;2023-07-24T01:51:50;91673.16;;;21.58;49.45
5952;BME280;3001;42.622;23.194;2023-07-24T01:54:16;91680.38;;;21.61;49.38
5952;BME280;3001;42.622;23.194;2023-07-24T01:56:43;91673.47;;;21.79;48.18
5952;BME280;3001;42.622;23.194;2023-07-24T01:59:10;91665.78;;;21.70;48.51
5952;BME280;3001;42.622;23.194;2023-07-24T02:01:38;91665.72;;;21.63;49.12
5952;BME280;3001;42.622;23.194;2023-07-24T02:04:04;91665.94;;;21.81;49.60
5952;BME280;3001;42.622;23.194;2023-07-24T02:06:31;91667.25;;;21.94;48.95
5952;BME280;3001;42.622;23.194;2023-07-24T02:08:58;91662.47;;;22.06;47.12
5952;BME280;3001;42.622;23.194;2023-07-24T02:11:24;91660.50;;;22.00;47.59
5952;BME280;3001;42.622;23.194;2023-07-24T02:13:51;91663.34;;;21.84;48.34
5952;BME280;3001;42.622;23.194;2023-07-24T02:16:18;91658.72;;;21.78;49.07
5952;BME280;3001;42.622;23.194;2023-07-24T02:18:45;91657.53;;;22.05;48.04
5952;BME280;3001;42.622;23.194;2023-07-24T02:21:12;91660.81;;;21.95;45.37
5952;BME280;3001;42.622;23.194;2023-07-24T02:23:39;91651.38;;;21.94;47.73
5952;BME280;3001;42.622;23.194;2023-07-24T02:26:05;91646.28;;;21.82;47.81
5952;BME280;3001;42.622;23.194;2023-07-24T02:28:32;91649.91;;;21.67;46.78
5952;BME280;3001;42.622;23.194;2023-07-24T02:30:59;91651.59;;;21.56;48.97
5952;BME280;3001;42.622;23.194;2023-07-24T02:33:26;91647.69;;;21.46;49.68
5952;BME280;3001;42.622;23.194;2023-07-24T02:35:54;91650.41;;;21.50;49.96
5952;BME280;3001;42.622;23.194;2023-07-24T02:38:20;91644.31;;;21.49;50.04
5952;BME280;3001;42.622;23.194;2023-07-24T02:40:47;91648.56;;;21.54;50.05
5952;BME280;3001;42.622;23.194;2023-07-24T02:43:14;91641.84;;;21.34;50.37
5952;BME280;3001;42.622;23.194;2023-07-24T02:45:40;91649.88;;;21.15;51.05
5952;BME280;3001;42.622;23.194;2023-07-24T02:48:07;91647.03;;;21.01;51.51
5952;BME280;3001;42.622;23.194;2023-07-24T02:50:34;91645.00;;;21.17;51.68
5952;BME280;3001;42.622;23.194;2023-07-24T02:53:02;91646.47;;;21.40;51.00
5952;BME280;3001;42.622;23.194;2023-07-24T02:55:29;91647.28;;;21.70;48.44
5952;BME280;3001;42.622;23.194;2023-07-24T02:57:56;91646.22;;;21.75;48.79
5952;BME280;3001;42.622;23.194;2023-07-24T03:00:23;91643.50;;;21.68;48.62
5952;BME280;3001;42.622;23.194;2023-07-24T03:02:50;91644.47;;;21.60;48.54
5952;BME280;3001;42.622;23.194;2023-07-24T03:05:16;91642.13;;;21.81;47.99
5952;BME280;3001;42.622;23.194;2023-07-24T03:07:43;91644.56;;;21.93;48.30
5952;BME280;3001;42.622;23.194;2023-07-24T03:10:11;91644.25;;;21.68;49.09
5952;BME280;3001;42.622;23.194;2023-07-24T03:12:38;91637.94;;;21.76;50.20
5952;BME280;3001;42.622;23.194;2023-07-24T03:15:06;91637.75;;;21.36;51.38
5952;BME280;3001;42.622;23.194;2023-07-24T03:17:32;91637.47;;;21.71;49.69
5952;BME280;3001;42.622;23.194;2023-07-24T03:20:07;91641.25;;;21.18;48.90
5952;BME280;3001;42.622;23.194;2023-07-24T03:22:34;91636.22;;;21.35;49.18
5952;BME280;3001;42.622;23.194;2023-07-24T03:25:00;91643.03;;;21.36;50.29
5952;BME280;3001;42.622;23.194;2023-07-24T03:27:28;91642.78;;;21.45;49.78
5952;BME280;3001;42.622;23.194;2023-07-24T03:29:55;91639.63;;;21.36;50.64
5952;BME280;3001;42.622;23.194;2023-07-24T03:32:22;91642.50;;;21.27;50.71
5952;BME280;3001;42.622;23.194;2023-07-24T03:34:48;91643.47;;;21.16;51.22
5952;BME280;3001;42.622;23.194;2023-07-24T03:37:15;91646.19;;;21.19;49.97
5952;BME280;3001;42.622;23.194;2023-07-24T03:39:42;91641.78;;;21.30;49.60
5952;BME280;3001;42.622;23.194;2023-07-24T03:42:10;91644.31;;;21.46;49.37
5952;BME280;3001;42.622;23.194;2023-07-24T03:44:39;91641.44;;;21.58;50.57
5952;BME280;3001;42.622;23.194;2023-07-24T03:47:06;91636.47;;;21.53;51.33
5952;BME280;3001;42.622;23.194;2023-07-24T03:49:33;91632.53;;;21.43;52.18
5952;BME280;3001;42.622;23.194;2023-07-24T03:52:00;91638.06;;;21.61;52.34
5952;BME280;3001;42.622;23.194;2023-07-24T03:54:26;91627.81;;;21.56;52.65
5952;BME280;3001;42.622;23.194;2023-07-24T03:56:53;91634.78;;;21.41;53.22
5952;BME280;3001;42.622;23.194;2023-07-24T03:59:19;91622.56;;;21.59;54.15
5952;BME280;3001;42.622;23.194;2023-07-24T04:01:47;91628.03;;;21.73;52.80
5952;BME280;3001;42.622;23.194;2023-07-24T04:04:14;91628.88;;;21.77;52.75
5952;BME280;3001;42.622;23.194;2023-07-24T04:06:41;91629.75;;;21.88;53.07
5952;BME280;3001;42.622;23.194;2023-07-24T04:09:08;91635.72;;;21.82;54.12
5952;BME280;3001;42.622;23.194;2023-07-24T04:11:36;91638.06;;;21.61;54.52
5952;BME280;3001;42.622;23.194;2023-07-24T04:14:03;91650.41;;;21.53;55.83
5952;BME280;3001;42.622;23.194;2023-07-24T04:16:30;91652.53;;;21.41;56.81
5952;BME280;3001;42.622;23.194;2023-07-24T04:18:58;91648.75;;;21.42;57.93
5952;BME280;3001;42.622;23.194;2023-07-24T04:21:24;91662.91;;;21.27;59.08
5952;BME280;3001;42.622;23.194;2023-07-24T04:23:51;91652.78;;;21.32;61.20
5952;BME280;3001;42.622;23.194;2023-07-24T04:26:18;91651.81;;;21.18;61.46
5952;BME280;3001;42.622;23.194;2023-07-24T04:28:44;91655.94;;;21.41;60.87
5952;BME280;3001;42.622;23.194;2023-07-24T04:31:11;91656.69;;;21.42;62.42
5952;BME280;3001;42.622;23.194;2023-07-24T04:33:38;91645.91;;;21.54;62.71
5952;BME280;3001;42.622;23.194;2023-07-24T04:36:06;91655.03;;;21.56;63.29
5952;BME280;3001;42.622;23.194;2023-07-24T04:38:33;91646.84;;;21.65;64.10
5952;BME280;3001;42.622;23.194;2023-07-24T04:41:00;91645.41;;;21.45;65.16
5952;BME280;3001;42.622;23.194;2023-07-24T04:43:28;91638.72;;;21.54;65.75
5952;BME280;3001;42.622;23.194;2023-07-24T04:45:55;91642.41;;;21.46;67.37
5952;BME280;3001;42.622;23.194;2023-07-24T04:48:21;91647.16;;;21.34;66.89
5952;BME280;3001;42.622;23.194;2023-07-24T04:50:53;91653.19;;;21.34;68.11
5952;BME280;3001;42.622;23.194;2023-07-24T04:53:21;91645.31;;;21.64;67.44
5952;BME280;3001;42.622;23.194;2023-07-24T04:55:47;91645.94;;;21.83;66.12
5952;BME280;3001;42.622;23.194;2023-07-24T04:58:14;91656.56;;;21.87;67.03
5952;BME280;3001;42.622;23.194;2023-07-24T05:00:41;91651.63;;;21.85;66.24
5952;BME280;3001;42.622;23.194;2023-07-24T05:03:08;91637.38;;;21.64;68.88
5952;BME280;3001;42.622;23.194;2023-07-24T05:05:36;91643.03;;;21.62;70.21
5952;BME280;3001;42.622;23.194;2023-07-24T05:08:03;91651.38;;;21.64;71.70
5952;BME280;3001;42.622;23.194;2023-07-24T05:10:36;91643.16;;;21.73;72.46
5952;BME280;3001;42.622;23.194;2023-07-24T05:13:02;91644.22;;;21.65;73.16
5952;BME280;3001;42.622;23.194;2023-07-24T05:15:29;91643.63;;;21.78;72.02
5952;BME280;3001;42.622;23.194;2023-07-24T05:17:56;91645.28;;;21.90;73.08
5952;BME280;3001;42.622;23.194;2023-07-24T05:20:22;91650.97;;;21.92;71.67
5952;BME280;3001;42.622;23.194;2023-07-24T05:22:49;91645.75;;;21.99;73.04
5952;BME280;3001;42.622;23.194;2023-07-24T05:25:16;91646.47;;;21.96;74.37
5952;BME280;3001;42.622;23.194;2023-07-24T05:27:44;91646.25;;;22.08;75.37
5952;BME280;3001;42.622;23.194;2023-07-24T05:30:10;91652.84;;;22.24;72.94
5952;BME280;3001;42.622;23.194;2023-07-24T05:32:37;91660.84;;;22.31;72.78
5952;BME280;3001;42.622;23.194;2023-07-24T05:35:04;91656.50;;;22.46;72.50
5952;BME280;3001;42.622;23.194;2023-07-24T05:37:31;91660.75;;;22.54;72.33
5952;BME280;3001;42.622;23.194;2023-07-24T05:39:58;91654.56;;;22.39;74.63
5952;BME280;3001;42.622;23.194;2023-07-24T05:42:24;91649.63;;;22.38;74.05
5952;BME280;3001;42.622;23.194;2023-07-24T05:44:52;91657.63;;;22.45;74.51
5952;BME280;3001;42.622;23.194;2023-07-24T05:47:19;91647.94;;;22.59;73.47
5952;BME280;3001;42.622;23.194;2023-07-24T05:49:46;91656.38;;;22.72;71.99
5952;BME280;3001;42.622;23.194;2023-07-24T05:52:12;91643.47;;;22.67;73.55
5952;BME280;3001;42.622;23.194;2023-07-24T05:54:39;91648.53;;;22.82;71.83
5952;BME280;3001;42.622;23.194;2023-07-24T05:57:06;91640.50;;;22.72;73.33
5952;BME280;3001;42.622;23.194;2023-07-24T05:59:32;91646.31;;;22.88;72.43
5952;BME280;3001;42.622;23.194;2023-07-24T06:02:00;91647.03;;;22.81;73.02
5952;BME280;3001;42.622;23.194;2023-07-24T06:04:27;91640.91;;;23.20;72.66
5952;BME280;3001;42.622;23.194;2023-07-24T06:06:54;91647.75;;;23.21;70.90
5952;BME280;3001;42.622;23.194;2023-07-24T06:09:20;91643.75;;;23.48;70.08
5952;BME280;3001;42.622;23.194;2023-07-24T06:11:47;91642.28;;;23.54;71.60
5952;BME280;3001;42.622;23.194;2023-07-24T06:14:14;91649.47;;;23.50;72.24
5952;BME280;3001;42.622;23.194;2023-07-24T06:16:40;91637.72;;;23.51;71.80
5952;BME280;3001;42.622;23.194;2023-07-24T06:19:08;91639.03;;;23.24;74.12
5952;BME280;3001;42.622;23.194;2023-07-24T06:21:35;91644.75;;;23.26;75.03
5952;BME280;3001;42.622;23.194;2023-07-24T06:24:02;91643.34;;;23.43;76.55
5952;BME280;3001;42.622;23.194;2023-07-24T06:26:29;91641.19;;;23.59;74.20
5952;BME280;3001;42.622;23.194;2023-07-24T06:28:56;91644.22;;;23.61;75.79
5952;BME280;3001;42.622;23.194;2023-07-24T06:31:23;91642.78;;;23.77;75.12
5952;BME280;3001;42.622;23.194;2023-07-24T06:33:49;91638.69;;;23.87;74.40
5952;BME280;3001;42.622;23.194;2023-07-24T06:36:17;91648.59;;;23.97;71.12
5952;BME280;3001;42.622;23.194;2023-07-24T06:38:44;91644.88;;;24.12;71.32
5952;BME280;3001;42.622;23.194;2023-07-24T06:41:12;91647.13;;;24.10;66.45
5952;BME280;3001;42.622;23.194;2023-07-24T06:43:40;91639.94;;;24.10;68.37
5952;BME280;3001;42.622;23.194;2023-07-24T06:46:07;91645.31;;;24.31;67.30
5952;BME280;3001;42.622;23.194;2023-07-24T06:48:34;91646.16;;;24.60;67.09
5952;BME280;3001;42.622;23.194;2023-07-24T06:51:01;91656.44;;;24.72;64.32
5952;BME280;3001;42.622;23.194;2023-07-24T06:53:29;91655.31;;;24.90;64.54
5952;BME280;3001;42.622;23.194;2023-07-24T06:55:56;91658.38;;;24.95;62.99
5952;BME280;3001;42.622;23.194;2023-07-24T06:58:22;91658.75;;;25.08;60.30
5952;BME280;3001;42.622;23.194;2023-07-24T07:00:49;91659.94;;;25.31;58.08
5952;BME280;3001;42.622;23.194;2023-07-24T07:03:16;91665.63;;;25.51;55.02
5952;BME280;3001;42.622;23.194;2023-07-24T07:05:42;91661.44;;;25.39;58.44
5952;BME280;3001;42.622;23.194;2023-07-24T07:08:09;91666.03;;;25.39;59.68
5952;BME280;3001;42.622;23.194;2023-07-24T07:10:37;91671.34;;;25.49;60.71
5952;BME280;3001;42.622;23.194;2023-07-24T07:13:04;91666.03;;;25.39;58.07
5952;BME280;3001;42.622;23.194;2023-07-24T07:15:30;91662.22;;;25.33;60.90
5952;BME280;3001;42.622;23.194;2023-07-24T07:17:57;91658.81;;;25.36;62.90
5952;BME280;3001;42.622;23.194;2023-07-24T07:20:24;91659.19;;;25.38;61.90
5952;BME280;3001;42.622;23.194;2023-07-24T07:22:50;91653.81;;;25.52;60.18
5952;BME280;3001;42.622;23.194;2023-07-24T07:25:17;91656.47;;;25.62;61.04
5952;BME280;3001;42.622;23.194;2023-07-24T07:27:45;91649.63;;;25.65;63.06
5952;BME280;3001;42.622;23.194;2023-07-24T07:30:12;91650.03;;;25.84;62.79
5952;BME280;3001;42.622;23.194;2023-07-24T07:32:38;91653.81;;;25.94;60.28
5952;BME280;3001;42.622;23.194;2023-07-24T07:35:06;91656.28;;;26.43;59.48
5952;BME280;3001;42.622;23.194;2023-07-24T07:37:33;91658.13;;;26.60;59.93
5952;BME280;3001;42.622;23.194;2023-07-24T07:39:59;91655.34;;;26.73;60.48
5952;BME280;3001;42.622;23.194;2023-07-24T07:42:26;91652.53;;;27.01;58.68
5952;BME280;3001;42.622;23.194;2023-07-24T07:44:54;91650.22;;;27.03;58.98
5952;BME280;3001;42.622;23.194;2023-07-24T07:47:20;91655.56;;;27.03;57.97
5952;BME280;3001;42.622;23.194;2023-07-24T07:49:47;91654.72;;;27.20;59.25
5952;BME280;3001;42.622;23.194;2023-07-24T07:52:14;91649.34;;;27.24;60.49
5952;BME280;3001;42.622;23.194;2023-07-24T07:54:46;91653.72;;;27.48;57.58
5952;BME280;3001;42.622;23.194;2023-07-24T07:57:12;91659.03;;;27.51;60.45
5952;BME280;3001;42.622;23.194;2023-07-24T07:59:39;91659.25;;;27.67;60.84
5952;BME280;3001;42.622;23.194;2023-07-24T08:02:07;91663.19;;;27.56;60.12
5952;BME280;3001;42.622;23.194;2023-07-24T08:04:34;91661.47;;;27.79;60.30
5952;BME280;3001;42.622;23.194;2023-07-24T08:07:01;91660.22;;;27.91;58.71
5952;BME280;3001;42.622;23.194;2023-07-24T08:09:28;91663.84;;;28.07;57.60
5952;BME280;3001;42.622;23.194;2023-07-24T08:11:55;91661.34;;;28.30;57.46
5952;BME280;3001;42.622;23.194;2023-07-24T08:14:21;91655.19;;;28.33;56.72
5952;BME280;3001;42.622;23.194;2023-07-24T08:16:48;91651.41;;;28.60;54.88
5952;BME280;3001;42.622;23.194;2023-07-24T08:19:16;91655.44;;;28.75;55.40
5952;BME280;3001;42.622;23.194;2023-07-24T08:21:43;91648.59;;;29.01;52.44
5952;BME280;3001;42.622;23.194;2023-07-24T08:24:10;91651.47;;;29.13;52.04
5952;BME280;3001;42.622;23.194;2023-07-24T08:26:36;91649.63;;;29.10;50.35
5952;BME280;3001;42.622;23.194;2023-07-24T08:29:03;91637.84;;;29.27;51.42
5952;BME280;3001;42.622;23.194;2023-07-24T08:31:31;91649.38;;;29.51;48.86
5952;BME280;3001;42.622;23.194;2023-07-24T08:33:58;91643.69;;;29.45;44.01
5952;BME280;3001;42.622;23.194;2023-07-24T08:36:26;91646.81;;;29.67;45.48
5952;BME280;3001;42.622;23.194;2023-07-24T08:38:52;91642.03;;;29.78;41.72
5952;BME280;3001;42.622;23.194;2023-07-24T08:41:19;91645.56;;;29.94;39.89
5952;BME280;3001;42.622;23.194;2023-07-24T08:43:46;91631.19;;;30.27;38.55
5952;BME280;3001;42.622;23.194;2023-07-24T08:46:15;91651.13;;;30.46;36.25
5952;BME280;3001;42.622;23.194;2023-07-24T08:48:42;91648.63;;;30.54;36.83
5952;BME280;3001;42.622;23.194;2023-07-24T08:51:10;91646.31;;;30.76;38.44
5952;BME280;3001;42.622;23.194;2023-07-24T08:53:40;91658.56;;;30.57;39.28
5952;BME280;3001;42.622;23.194;2023-07-24T08:56:08;91653.66;;;30.72;40.53
5952;BME280;3001;42.622;23.194;2023-07-24T08:58:35;91649.06;;;30.72;38.80
5952;BME280;3001;42.622;23.194;2023-07-24T09:01:03;91662.91;;;31.06;37.97
5952;BME280;3001;42.622;23.194;2023-07-24T09:03:31;91659.69;;;31.15;33.87
5952;BME280;3001;42.622;23.194;2023-07-24T09:05:58;91657.09;;;31.27;36.03
5952;BME280;3001;42.622;23.194;2023-07-24T09:08:29;91649.78;;;31.28;36.55
5952;BME280;3001;42.622;23.194;2023-07-24T09:10:58;91642.84;;;31.46;35.32
5952;BME280;3001;42.622;23.194;2023-07-24T09:13:25;91653.47;;;31.50;34.43
5952;BME280;3001;42.622;23.194;2023-07-24T09:15:52;91659.09;;;31.39;34.39
5952;BME280;3001;42.622;23.194;2023-07-24T09:18:19;91655.09;;;31.47;34.00
5952;BME280;3001;42.622;23.194;2023-07-24T09:20:46;91654.44;;;31.75;34.41
5952;BME280;3001;42.622;23.194;2023-07-24T09:23:13;91653.75;;;31.71;34.03
5952;BME280;3001;42.622;23.194;2023-07-24T09:25:42;91644.84;;;31.74;36.21
5952;BME280;3001;42.622;23.194;2023-07-24T09:28:11;91632.91;;;31.59;38.68
5952;BME280;3001;42.622;23.194;2023-07-24T09:30:38;91636.34;;;31.76;38.43
5952;BME280;3001;42.622;23.194;2023-07-24T09:33:06;91626.69;;;31.94;38.82
5952;BME280;3001;42.622;23.194;2023-07-24T09:35:32;91635.56;;;32.07;37.96
5952;BME280;3001;42.622;23.194;2023-07-24T09:38:04;91629.00;;;32.08;39.96
5952;BME280;3001;42.622;23.194;2023-07-24T09:40:38;91631.16;;;32.13;39.12
5952;BME280;3001;42.622;23.194;2023-07-24T09:43:16;91629.25;;;32.42;37.68
5952;BME280;3001;42.622;23.194;2023-07-24T09:45:43;91624.34;;;32.53;36.02
5952;BME280;3001;42.622;23.194;2023-07-24T09:48:12;91618.50;;;32.54;37.67
5952;BME280;3001;42.622;23.194;2023-07-24T09:50:40;91620.75;;;32.84;37.90
5952;BME280;3001;42.622;23.194;2023-07-24T09:53:12;91630.56;;;32.91;38.24
5952;BME280;3001;42.622;23.194;2023-07-24T09:55:45;91628.94;;;32.81;39.53
5952;BME280;3001;42.622;23.194;2023-07-24T09:58:15;91619.69;;;33.07;40.39
5952;BME280;3001;42.622;23.194;2023-07-24T10:00:44;91613.66;;;33.03;38.72
5952;BME280;3001;42.622;23.194;2023-07-24T10:03:13;91610.63;;;33.13;41.30
5952;BME280;3001;42.622;23.194;2023-07-24T10:05:41;91603.03;;;33.24;40.43
5952;BME280;3001;42.622;23.194;2023-07-24T10:08:08;91610.22;;;33.40;38.91
5952;BME280;3001;42.622;23.194;2023-07-24T10:10:36;91609.16;;;33.50;38.45
5952;BME280;3001;42.622;23.194;2023-07-24T10:13:03;91609.53;;;33.61;39.58
5952;BME280;3001;42.622;23.194;2023-07-24T10:15:31;91593.06;;;33.59;38.17
5952;BME280;3001;42.622;23.194;2023-07-24T10:18:02;91601.22;;;33.68;38.63
5952;BME280;3001;42.622;23.194;2023-07-24T10:20:33;91583.69;;;33.63;40.72
5952;BME280;3001;42.622;23.194;2023-07-24T10:23:00;91601.50;;;33.95;40.38
5952;BME280;3001;42.622;23.194;2023-07-24T10:25:29;91590.38;;;34.05;39.19
5952;BME280;3001;42.622;23.194;2023-07-24T10:28:01;91588.41;;;34.06;40.88
5952;BME280;3001;42.622;23.194;2023-07-24T10:30:28;91600.91;;;34.12;38.82
5952;BME280;3001;42.622;23.194;2023-07-24T10:33:05;91585.03;;;34.14;39.90
5952;BME280;3001;42.622;23.194;2023-07-24T10:35:37;91585.09;;;34.02;41.78
5952;BME280;3001;42.622;23.194;2023-07-24T10:38:04;91587.53;;;34.09;40.08
5952;BME280;3001;42.622;23.194;2023-07-24T10:40:32;91591.19;;;34.15;39.02
5952;BME280;3001;42.622;23.194;2023-07-24T10:43:00;91583.63;;;34.43;38.45
5952;BME280;3001;42.622;23.194;2023-07-24T10:45:41;91584.31;;;33.67;37.92
5952;BME280;3001;42.622;23.194;2023-07-24T10:48:09;91577.03;;;33.43;39.80
5952;BME280;3001;42.622;23.194;2023-07-24T10:50:41;91578.84;;;33.46;40.25
5952;BME280;3001;42.622;23.194;2023-07-24T10:53:08;91574.75;;;33.54;41.83
5952;BME280;3001;42.622;23.194;2023-07-24T10:55:35;91571.59;;;33.55;41.57
5952;BME280;3001;42.622;23.194;2023-07-24T10:58:02;91569.63;;;33.68;38.00
5952;BME280;3001;42.622;23.194;2023-07-24T11:00:28;91565.34;;;33.58;38.38
5952;BME280;3001;42.622;23.194;2023-07-24T11:02:55;91574.34;;;33.89;39.97
5952;BME280;3001;42.622;23.194;2023-07-24T11:05:23;91572.53;;;33.86;39.02
5952;BME280;3001;42.622;23.194;2023-07-24T11:07:50;91562.25;;;33.94;38.78
5952;BME280;3001;42.622;23.194;2023-07-24T11:10:17;91573.50;;;33.80;39.91
5952;BME280;3001;42.622;23.194;2023-07-24T11:12:44;91570.72;;;34.05;36.11
5952;BME280;3001;42.622;23.194;2023-07-24T11:15:12;91557.66;;;33.82;37.61
5952;BME280;3001;42.622;23.194;2023-07-24T11:17:40;91549.25;;;33.80;38.64
5952;BME280;3001;42.622;23.194;2023-07-24T11:20:09;91552.50;;;33.75;37.25
5952;BME280;3001;42.622;23.194;2023-07-24T11:22:39;91546.69;;;33.98;38.96
5952;BME280;3001;42.622;23.194;2023-07-24T11:25:07;91538.53;;;33.89;39.72
5952;BME280;3001;42.622;23.194;2023-07-24T11:27:38;91544.53;;;34.27;39.76
5952;BME280;3001;42.622;23.194;2023-07-24T11:30:07;91540.00;;;34.45;39.69
5952;BME280;3001;42.622;23.194;2023-07-24T11:32:34;91541.28;;;34.92;39.97
5952;BME280;3001;42.622;23.194;2023-07-24T11:35:01;91540.56;;;35.01;36.52
5952;BME280;3001;42.622;23.194;2023-07-24T11:37:28;91545.72;;;35.08;36.42
5952;BME280;3001;42.622;23.194;2023-07-24T11:39:58;91551.06;;;34.90;35.88
5952;BME280;3001;42.622;23.194;2023-07-24T11:42:30;91547.91;;;34.91;37.65
5952;BME280;3001;42.622;23.194;2023-07-24T11:45:00;91543.94;;;34.74;36.83
5952;BME280;3001;42.622;23.194;2023-07-24T11:47:27;91531.38;;;34.80;37.95
5952;BME280;3001;42.622;23.194;2023-07-24T11:50:00;91532.06;;;34.72;37.08
5952;BME280;3001;42.622;23.194;2023-07-24T11:52:37;91529.06;;;35.09;38.75
5952;BME280;3001;42.622;23.194;2023-07-24T11:55:07;91545.03;;;35.16;35.34
5952;BME280;3001;42.622;23.194;2023-07-24T11:57:34;91530.81;;;34.94;33.22
5952;BME280;3001;42.622;23.194;2023-07-24T12:00:02;91538.06;;;35.06;36.19
5952;BME280;3001;42.622;23.194;2023-07-24T12:02:29;91527.97;;;34.98;38.22
5952;BME280;3001;42.622;23.194;2023-07-24T12:04:58;91541.19;;;35.35;36.06
5952;BME280;3001;42.622;23.194;2023-07-24T12:07:30;91527.63;;;35.26;33.56
5952;BME280;3001;42.622;23.194;2023-07-24T12:09:57;91531.09;;;35.27;35.92
5952;BME280;3001;42.622;23.194;2023-07-24T12:12:25;91534.22;;;35.16;33.40
5952;BME280;3001;42.622;23.194;2023-07-24T12:15:03;91530.75;;;35.16;36.65
5952;BME280;3001;42.622;23.194;2023-07-24T12:17:29;91519.94;;;35.16;34.36
5952;BME280;3001;42.622;23.194;2023-07-24T12:19:56;91519.63;;;35.14;36.98
5952;BME280;3001;42.622;23.194;2023-07-24T12:22:23;91522.16;;;35.08;33.96
5952;BME280;3001;42.622;23.194;2023-07-24T12:24:49;91526.84;;;35.17;35.26
5952;BME280;3001;42.622;23.194;2023-07-24T12:27:16;91513.66;;;35.19;35.85
5952;BME280;3001;42.622;23.194;2023-07-24T12:29:44;91509.63;;;35.32;37.32
5952;BME280;3001;42.622;23.194;2023-07-24T12:32:11;91510.53;;;35.29;37.87
5952;BME280;3001;42.622;23.194;2023-07-24T12:34:37;91510.31;;;35.06;38.27
5952;BME280;3001;42.622;23.194;2023-07-24T12:37:04;91514.22;;;35.14;37.86
5952;BME280;3001;42.622;23.194;2023-07-24T12:39:31;91506.03;;;35.26;36.81
5952;BME280;3001;42.622;23.194;2023-07-24T12:41:57;91496.72;;;35.27;38.60
5952;BME280;3001;42.622;23.194;2023-07-24T12:44:24;91503.66;;;35.37;38.29
5952;BME280;3001;42.622;23.194;2023-07-24T12:46:53;91506.84;;;35.81;37.63
5952;BME280;3001;42.622;23.194;2023-07-24T12:49:19;91502.94;;;35.82;36.39
5952;BME280;3001;42.622;23.194;2023-07-24T12:51:46;91500.84;;;35.95;36.44
5952;BME280;3001;42.622;23.194;2023-07-24T12:54:13;91500.41;;;35.96;32.82
5952;BME280;3001;42.622;23.194;2023-07-24T12:56:40;91509.28;;;35.88;30.35
5952;BME280;3001;42.622;23.194;2023-07-24T12:59:07;91511.66;;;35.95;30.67
5952;BME280;3001;42.622;23.194;2023-07-24T13:01:33;91512.88;;;35.85;31.54
5952;BME280;3001;42.622;23.194;2023-07-24T13:04:01;91512.09;;;35.93;28.57
5952;BME280;3001;42.622;23.194;2023-07-24T13:06:28;91511.66;;;36.04;28.78
5952;BME280;3001;42.622;23.194;2023-07-24T13:08:55;91509.09;;;36.27;28.09
5952;BME280;3001;42.622;23.194;2023-07-24T13:11:21;91505.34;;;36.25;29.07